sensor_id;sensor_type;location;lat;lon;timestamp;P1;durP1;ratioP1;P2;durP2;ratioP2
44139;SDS011;29803;51.048;4.686;2023-06-05T00:02:04;10.07;;;3.60;;
44139;SDS011;29803;51.048;4.686;2023-06-05T00:04:35;8.13;;;3.33;;
44139;SDS011;29803;51.048;4.686;2023-06-05T00:07:06;10.32;;;3.58;;
44139;SDS011;29803;51.048;4.686;2023-06-05T00:09:37;18.67;;;4.13;;
44139;SDS011;29803;51.048;4.686;2023-06-05T00:12:07;8.60;;;3.55;;
44139;SDS011;29803;51.048;4.686;2023-06-05T00:14:38;8.23;;;4.20;;
44139;SDS011;29803;51.048;4.686;2023-06-05T00:17:09;8.05;;;3.50;;
44139;SDS011;29803;51.048;4.686;2023-06-05T00:19:39;7.97;;;3.30;;
44139;SDS011;29803;51.048;4.686;2023-06-05T00:22:09;7.85;;;3.75;;
44139;SDS011;29803;51.048;4.686;2023-06-05T00:24:40;6.32;;;3.08;;
44139;SDS011;29803;51.048;4.686;2023-06-05T00:27:10;8.02;;;3.75;;
44139;SDS011;29803;51.048;4.686;2023-06-05T00:29:41;7.70;;;3.63;;
44139;SDS011;29803;51.048;4.686;2023-06-05T00:32:11;10.30;;;3.60;;
44139;SDS011;29803;51.048;4.686;2023-06-05T00:34:42;16.60;;;4.15;;
44139;SDS011;29803;51.048;4.686;2023-06-05T00:37:12;9.93;;;3.65;;
44139;SDS011;29803;51.048;4.686;2023-06-05T00:39:44;9.23;;;3.65;;
44139;SDS011;29803;51.048;4.686;2023-06-05T00:42:14;12.57;;;3.65;;
44139;SDS011;29803;51.048;4.686;2023-06-05T00:44:45;7.75;;;3.90;;
44139;SDS011;29803;51.048;4.686;2023-06-05T00:47:16;7.13;;;3.58;;
44139;SDS011;29803;51.048;4.686;2023-06-05T00:49:47;8.07;;;4.18;;
44139;SDS011;29803;51.048;4.686;2023-06-05T00:52:18;9.18;;;3.72;;
44139;SDS011;29803;51.048;4.686;2023-06-05T00:54:48;4.57;;;3.45;;
44139;SDS011;29803;51.048;4.686;2023-06-05T00:57:19;11.10;;;3.97;;
44139;SDS011;29803;51.048;4.686;2023-06-05T00:59:50;6.65;;;3.58;;
44139;SDS011;29803;51.048;4.686;2023-06-05T01:02:20;8.20;;;3.75;;
44139;SDS011;29803;51.048;4.686;2023-06-05T01:04:51;11.15;;;4.38;;
44139;SDS011;29803;51.048;4.686;2023-06-05T01:07:22;6.15;;;3.92;;
44139;SDS011;29803;51.048;4.686;2023-06-05T01:09:53;10.27;;;3.97;;
44139;SDS011;29803;51.048;4.686;2023-06-05T01:15:10;9.07;;;4.43;;
44139;SDS011;29803;51.048;4.686;2023-06-05T01:17:42;6.18;;;3.70;;
44139;SDS011;29803;51.048;4.686;2023-06-05T01:20:38;9.63;;;4.07;;
44139;SDS011;29803;51.048;4.686;2023-06-05T01:29:06;9.20;;;4.70;;
44139;SDS011;29803;51.048;4.686;2023-06-05T01:31:42;9.90;;;4.20;;
44139;SDS011;29803;51.048;4.686;2023-06-05T01:34:15;10.15;;;3.90;;
44139;SDS011;29803;51.048;4.686;2023-06-05T01:36:49;9.18;;;4.15;;
44139;SDS011;29803;51.048;4.686;2023-06-05T01:39:21;12.02;;;4.13;;
44139;SDS011;29803;51.048;4.686;2023-06-05T01:41:55;7.82;;;4.63;;
44139;SDS011;29803;51.048;4.686;2023-06-05T01:46:59;9.00;;;4.43;;
44139;SDS011;29803;51.048;4.686;2023-06-05T01:49:31;8.90;;;4.15;;
44139;SDS011;29803;51.048;4.686;2023-06-05T01:52:01;8.50;;;4.25;;
44139;SDS011;29803;51.048;4.686;2023-06-05T01:54:32;6.97;;;4.25;;
44139;SDS011;29803;51.048;4.686;2023-06-05T01:57:04;14.23;;;4.55;;
44139;SDS011;29803;51.048;4.686;2023-06-05T01:59:35;9.45;;;4.63;;
44139;SDS011;29803;51.048;4.686;2023-06-05T02:02:06;8.40;;;4.63;;
44139;SDS011;29803;51.048;4.686;2023-06-05T02:04:40;10.07;;;4.30;;
44139;SDS011;29803;51.048;4.686;2023-06-05T02:07:10;8.32;;;4.10;;
44139;SDS011;29803;51.048;4.686;2023-06-05T02:09:41;13.10;;;4.97;;
44139;SDS011;29803;51.048;4.686;2023-06-05T02:12:12;8.80;;;4.47;;
44139;SDS011;29803;51.048;4.686;2023-06-05T02:14:44;14.27;;;5.15;;
44139;SDS011;29803;51.048;4.686;2023-06-05T02:17:14;10.43;;;4.63;;
44139;SDS011;29803;51.048;4.686;2023-06-05T02:19:46;7.70;;;4.65;;
44139;SDS011;29803;51.048;4.686;2023-06-05T02:22:16;11.75;;;4.80;;
44139;SDS011;29803;51.048;4.686;2023-06-05T02:24:47;15.50;;;4.75;;
44139;SDS011;29803;51.048;4.686;2023-06-05T02:27:17;9.88;;;4.75;;
44139;SDS011;29803;51.048;4.686;2023-06-05T02:29:49;14.00;;;5.22;;
44139;SDS011;29803;51.048;4.686;2023-06-05T02:32:20;11.05;;;5.00;;
44139;SDS011;29803;51.048;4.686;2023-06-05T02:34:51;9.40;;;4.95;;
44139;SDS011;29803;51.048;4.686;2023-06-05T02:37:22;12.55;;;4.85;;
44139;SDS011;29803;51.048;4.686;2023-06-05T02:39:54;12.50;;;4.70;;
44139;SDS011;29803;51.048;4.686;2023-06-05T02:42:24;8.10;;;4.88;;
44139;SDS011;29803;51.048;4.686;2023-06-05T02:44:55;11.80;;;5.10;;
44139;SDS011;29803;51.048;4.686;2023-06-05T02:47:25;13.43;;;4.85;;
44139;SDS011;29803;51.048;4.686;2023-06-05T02:49:56;11.00;;;4.78;;
44139;SDS011;29803;51.048;4.686;2023-06-05T02:52:28;14.25;;;5.45;;
44139;SDS011;29803;51.048;4.686;2023-06-05T02:54:59;14.55;;;5.78;;
44139;SDS011;29803;51.048;4.686;2023-06-05T02:57:31;10.55;;;5.30;;
44139;SDS011;29803;51.048;4.686;2023-06-05T03:00:03;15.30;;;5.75;;
44139;SDS011;29803;51.048;4.686;2023-06-05T03:02:38;12.23;;;5.33;;
44139;SDS011;29803;51.048;4.686;2023-06-05T03:05:08;11.43;;;5.13;;
44139;SDS011;29803;51.048;4.686;2023-06-05T03:07:40;12.10;;;5.57;;
44139;SDS011;29803;51.048;4.686;2023-06-05T03:10:10;9.15;;;5.20;;
44139;SDS011;29803;51.048;4.686;2023-06-05T03:12:41;13.07;;;5.38;;
44139;SDS011;29803;51.048;4.686;2023-06-05T03:15:11;11.70;;;5.20;;
44139;SDS011;29803;51.048;4.686;2023-06-05T03:17:42;9.23;;;5.03;;
44139;SDS011;29803;51.048;4.686;2023-06-05T03:20:12;10.15;;;4.90;;
44139;SDS011;29803;51.048;4.686;2023-06-05T03:22:43;11.90;;;5.50;;
44139;SDS011;29803;51.048;4.686;2023-06-05T03:25:13;13.70;;;5.55;;
44139;SDS011;29803;51.048;4.686;2023-06-05T03:27:44;13.07;;;5.53;;
44139;SDS011;29803;51.048;4.686;2023-06-05T03:30:16;12.05;;;5.32;;
44139;SDS011;29803;51.048;4.686;2023-06-05T03:32:49;12.35;;;5.72;;
44139;SDS011;29803;51.048;4.686;2023-06-05T03:35:19;10.80;;;5.68;;
44139;SDS011;29803;51.048;4.686;2023-06-05T03:37:50;14.30;;;5.85;;
44139;SDS011;29803;51.048;4.686;2023-06-05T03:40:20;13.57;;;5.63;;
44139;SDS011;29803;51.048;4.686;2023-06-05T03:42:51;11.27;;;6.00;;
44139;SDS011;29803;51.048;4.686;2023-06-05T03:45:21;17.17;;;6.10;;
44139;SDS011;29803;51.048;4.686;2023-06-05T03:47:52;10.10;;;6.35;;
44139;SDS011;29803;51.048;4.686;2023-06-05T03:50:24;13.25;;;6.03;;
44139;SDS011;29803;51.048;4.686;2023-06-05T03:52:54;10.35;;;5.75;;
44139;SDS011;29803;51.048;4.686;2023-06-05T03:55:32;10.35;;;5.90;;
44139;SDS011;29803;51.048;4.686;2023-06-05T03:58:22;10.43;;;5.47;;
44139;SDS011;29803;51.048;4.686;2023-06-05T04:00:53;16.23;;;6.57;;
44139;SDS011;29803;51.048;4.686;2023-06-05T04:03:24;12.85;;;5.57;;
44139;SDS011;29803;51.048;4.686;2023-06-05T04:05:55;15.85;;;7.63;;
44139;SDS011;29803;51.048;4.686;2023-06-05T04:08:25;12.88;;;6.97;;
44139;SDS011;29803;51.048;4.686;2023-06-05T04:10:56;13.45;;;6.95;;
44139;SDS011;29803;51.048;4.686;2023-06-05T04:13:26;10.20;;;6.07;;
44139;SDS011;29803;51.048;4.686;2023-06-05T04:15:57;13.43;;;6.22;;
44139;SDS011;29803;51.048;4.686;2023-06-05T04:18:27;12.20;;;5.95;;
44139;SDS011;29803;51.048;4.686;2023-06-05T04:20:58;15.80;;;6.32;;
44139;SDS011;29803;51.048;4.686;2023-06-05T04:23:29;13.10;;;6.40;;
44139;SDS011;29803;51.048;4.686;2023-06-05T04:25:59;12.70;;;6.85;;
44139;SDS011;29803;51.048;4.686;2023-06-05T04:28:29;16.23;;;7.38;;
44139;SDS011;29803;51.048;4.686;2023-06-05T04:31:01;16.63;;;7.25;;
44139;SDS011;29803;51.048;4.686;2023-06-05T04:33:32;15.93;;;7.20;;
44139;SDS011;29803;51.048;4.686;2023-06-05T04:36:02;17.17;;;7.00;;
44139;SDS011;29803;51.048;4.686;2023-06-05T04:38:34;14.65;;;6.45;;
44139;SDS011;29803;51.048;4.686;2023-06-05T04:41:07;16.05;;;7.13;;
44139;SDS011;29803;51.048;4.686;2023-06-05T04:43:37;14.57;;;6.88;;
44139;SDS011;29803;51.048;4.686;2023-06-05T04:46:08;16.65;;;7.07;;
44139;SDS011;29803;51.048;4.686;2023-06-05T04:48:38;14.10;;;7.50;;
44139;SDS011;29803;51.048;4.686;2023-06-05T04:51:09;18.67;;;7.75;;
44139;SDS011;29803;51.048;4.686;2023-06-05T04:53:39;14.85;;;7.65;;
44139;SDS011;29803;51.048;4.686;2023-06-05T04:56:11;15.57;;;7.35;;
44139;SDS011;29803;51.048;4.686;2023-06-05T04:58:42;18.63;;;7.95;;
44139;SDS011;29803;51.048;4.686;2023-06-05T05:01:12;16.75;;;8.63;;
44139;SDS011;29803;51.048;4.686;2023-06-05T05:03:44;15.40;;;7.50;;
44139;SDS011;29803;51.048;4.686;2023-06-05T05:06:16;14.20;;;8.00;;
44139;SDS011;29803;51.048;4.686;2023-06-05T05:08:47;17.40;;;7.85;;
44139;SDS011;29803;51.048;4.686;2023-06-05T05:11:19;17.05;;;8.23;;
44139;SDS011;29803;51.048;4.686;2023-06-05T05:13:50;19.95;;;8.13;;
44139;SDS011;29803;51.048;4.686;2023-06-05T05:16:21;21.52;;;8.32;;
44139;SDS011;29803;51.048;4.686;2023-06-05T05:18:52;15.52;;;7.47;;
44139;SDS011;29803;51.048;4.686;2023-06-05T05:21:23;13.18;;;7.32;;
44139;SDS011;29803;51.048;4.686;2023-06-05T05:23:53;20.63;;;8.32;;
44139;SDS011;29803;51.048;4.686;2023-06-05T05:26:23;16.27;;;8.02;;
44139;SDS011;29803;51.048;4.686;2023-06-05T05:28:54;14.65;;;8.07;;
44139;SDS011;29803;51.048;4.686;2023-06-05T05:31:25;17.33;;;7.95;;
44139;SDS011;29803;51.048;4.686;2023-06-05T05:33:55;17.30;;;7.22;;
44139;SDS011;29803;51.048;4.686;2023-06-05T05:36:26;15.02;;;7.80;;
44139;SDS011;29803;51.048;4.686;2023-06-05T05:38:57;28.05;;;8.23;;
44139;SDS011;29803;51.048;4.686;2023-06-05T05:41:28;17.80;;;8.10;;
44139;SDS011;29803;51.048;4.686;2023-06-05T05:43:58;19.30;;;8.70;;
44139;SDS011;29803;51.048;4.686;2023-06-05T05:46:29;11.88;;;7.63;;
44139;SDS011;29803;51.048;4.686;2023-06-05T05:48:59;16.33;;;7.97;;
44139;SDS011;29803;51.048;4.686;2023-06-05T05:51:30;18.67;;;7.45;;
44139;SDS011;29803;51.048;4.686;2023-06-05T05:54:00;16.08;;;8.35;;
44139;SDS011;29803;51.048;4.686;2023-06-05T05:56:31;23.35;;;8.23;;
44139;SDS011;29803;51.048;4.686;2023-06-05T05:59:04;16.95;;;8.02;;
44139;SDS011;29803;51.048;4.686;2023-06-05T06:01:34;16.27;;;8.10;;
44139;SDS011;29803;51.048;4.686;2023-06-05T06:04:05;15.38;;;8.05;;
44139;SDS011;29803;51.048;4.686;2023-06-05T06:06:35;14.13;;;7.82;;
44139;SDS011;29803;51.048;4.686;2023-06-05T06:09:08;14.75;;;8.07;;
44139;SDS011;29803;51.048;4.686;2023-06-05T06:11:38;19.75;;;8.05;;
44139;SDS011;29803;51.048;4.686;2023-06-05T06:14:10;15.10;;;7.38;;
44139;SDS011;29803;51.048;4.686;2023-06-05T06:16:40;11.38;;;7.25;;
44139;SDS011;29803;51.048;4.686;2023-06-05T06:19:12;12.68;;;7.65;;
44139;SDS011;29803;51.048;4.686;2023-06-05T06:21:44;11.23;;;7.00;;
44139;SDS011;29803;51.048;4.686;2023-06-05T06:24:14;13.05;;;7.03;;
44139;SDS011;29803;51.048;4.686;2023-06-05T06:26:46;13.20;;;7.78;;
44139;SDS011;29803;51.048;4.686;2023-06-05T06:29:18;11.05;;;6.82;;
44139;SDS011;29803;51.048;4.686;2023-06-05T06:31:50;10.30;;;7.43;;
44139;SDS011;29803;51.048;4.686;2023-06-05T06:34:21;11.98;;;7.75;;
44139;SDS011;29803;51.048;4.686;2023-06-05T06:36:51;13.85;;;7.68;;
44139;SDS011;29803;51.048;4.686;2023-06-05T06:39:22;12.13;;;7.80;;
44139;SDS011;29803;51.048;4.686;2023-06-05T06:41:55;15.35;;;7.82;;
44139;SDS011;29803;51.048;4.686;2023-06-05T06:44:27;12.55;;;7.38;;
44139;SDS011;29803;51.048;4.686;2023-06-05T06:46:58;17.17;;;8.23;;
44139;SDS011;29803;51.048;4.686;2023-06-05T06:49:28;13.70;;;7.18;;
44139;SDS011;29803;51.048;4.686;2023-06-05T06:51:59;14.88;;;7.07;;
44139;SDS011;29803;51.048;4.686;2023-06-05T06:54:30;14.65;;;7.47;;
44139;SDS011;29803;51.048;4.686;2023-06-05T06:57:01;15.20;;;7.20;;
44139;SDS011;29803;51.048;4.686;2023-06-05T06:59:33;12.20;;;7.25;;
44139;SDS011;29803;51.048;4.686;2023-06-05T07:02:08;11.95;;;7.25;;
44139;SDS011;29803;51.048;4.686;2023-06-05T07:04:41;14.10;;;6.82;;
44139;SDS011;29803;51.048;4.686;2023-06-05T07:07:14;10.85;;;7.25;;
44139;SDS011;29803;51.048;4.686;2023-06-05T07:09:46;15.88;;;7.82;;
44139;SDS011;29803;51.048;4.686;2023-06-05T07:12:19;10.70;;;6.78;;
44139;SDS011;29803;51.048;4.686;2023-06-05T07:14:51;9.40;;;6.10;;
44139;SDS011;29803;51.048;4.686;2023-06-05T07:17:22;17.92;;;8.10;;
44139;SDS011;29803;51.048;4.686;2023-06-05T07:19:52;10.38;;;6.43;;
44139;SDS011;29803;51.048;4.686;2023-06-05T07:22:23;14.88;;;7.05;;
44139;SDS011;29803;51.048;4.686;2023-06-05T07:24:54;12.02;;;7.20;;
44139;SDS011;29803;51.048;4.686;2023-06-05T07:27:25;13.32;;;7.68;;
44139;SDS011;29803;51.048;4.686;2023-06-05T07:29:55;11.20;;;6.88;;
44139;SDS011;29803;51.048;4.686;2023-06-05T07:32:26;12.98;;;6.95;;
44139;SDS011;29803;51.048;4.686;2023-06-05T07:34:56;10.57;;;7.07;;
44139;SDS011;29803;51.048;4.686;2023-06-05T07:37:27;9.05;;;6.68;;
44139;SDS011;29803;51.048;4.686;2023-06-05T07:39:58;11.10;;;7.60;;
44139;SDS011;29803;51.048;4.686;2023-06-05T07:42:28;9.82;;;7.57;;
44139;SDS011;29803;51.048;4.686;2023-06-05T07:44:58;10.73;;;7.75;;
44139;SDS011;29803;51.048;4.686;2023-06-05T07:47:29;12.10;;;7.25;;
44139;SDS011;29803;51.048;4.686;2023-06-05T07:50:00;12.68;;;7.60;;
44139;SDS011;29803;51.048;4.686;2023-06-05T07:52:33;13.63;;;7.85;;
44139;SDS011;29803;51.048;4.686;2023-06-05T07:55:05;15.93;;;7.75;;
44139;SDS011;29803;51.048;4.686;2023-06-05T07:57:37;13.13;;;7.68;;
44139;SDS011;29803;51.048;4.686;2023-06-05T08:00:09;16.45;;;7.18;;
44139;SDS011;29803;51.048;4.686;2023-06-05T08:02:40;13.20;;;7.63;;
44139;SDS011;29803;51.048;4.686;2023-06-05T08:05:15;12.43;;;7.38;;
44139;SDS011;29803;51.048;4.686;2023-06-05T08:07:47;11.65;;;7.57;;
44139;SDS011;29803;51.048;4.686;2023-06-05T08:10:17;14.25;;;7.63;;
44139;SDS011;29803;51.048;4.686;2023-06-05T08:12:48;10.27;;;7.00;;
44139;SDS011;29803;51.048;4.686;2023-06-05T08:15:18;11.77;;;6.80;;
44139;SDS011;29803;51.048;4.686;2023-06-05T08:17:49;10.95;;;6.78;;
44139;SDS011;29803;51.048;4.686;2023-06-05T08:20:19;14.32;;;7.85;;
44139;SDS011;29803;51.048;4.686;2023-06-05T08:22:50;11.95;;;7.40;;
44139;SDS011;29803;51.048;4.686;2023-06-05T08:25:20;11.55;;;7.72;;
44139;SDS011;29803;51.048;4.686;2023-06-05T08:27:51;11.65;;;7.72;;
44139;SDS011;29803;51.048;4.686;2023-06-05T08:30:21;14.15;;;8.32;;
44139;SDS011;29803;51.048;4.686;2023-06-05T08:32:52;12.70;;;8.00;;
44139;SDS011;29803;51.048;4.686;2023-06-05T08:35:22;13.95;;;7.80;;
44139;SDS011;29803;51.048;4.686;2023-06-05T08:37:53;11.88;;;7.05;;
44139;SDS011;29803;51.048;4.686;2023-06-05T08:40:25;12.50;;;7.63;;
44139;SDS011;29803;51.048;4.686;2023-06-05T08:42:59;15.05;;;7.65;;
44139;SDS011;29803;51.048;4.686;2023-06-05T08:45:31;14.45;;;7.63;;
44139;SDS011;29803;51.048;4.686;2023-06-05T08:48:02;12.95;;;7.40;;
44139;SDS011;29803;51.048;4.686;2023-06-05T08:50:32;13.25;;;6.88;;
44139;SDS011;29803;51.048;4.686;2023-06-05T08:53:05;14.32;;;8.48;;
44139;SDS011;29803;51.048;4.686;2023-06-05T08:55:36;16.10;;;8.63;;
44139;SDS011;29803;51.048;4.686;2023-06-05T08:58:06;13.43;;;7.90;;
44139;SDS011;29803;51.048;4.686;2023-06-05T09:00:37;10.65;;;7.07;;
44139;SDS011;29803;51.048;4.686;2023-06-05T09:03:10;12.90;;;6.90;;
44139;SDS011;29803;51.048;4.686;2023-06-05T09:05:43;19.13;;;7.03;;
44139;SDS011;29803;51.048;4.686;2023-06-05T09:13:51;15.18;;;7.28;;
44139;SDS011;29803;51.048;4.686;2023-06-05T09:16:36;13.30;;;6.57;;
44139;SDS011;29803;51.048;4.686;2023-06-05T09:19:09;18.02;;;8.00;;
44139;SDS011;29803;51.048;4.686;2023-06-05T09:21:46;14.25;;;7.65;;
44139;SDS011;29803;51.048;4.686;2023-06-05T09:24:22;12.57;;;7.18;;
44139;SDS011;29803;51.048;4.686;2023-06-05T09:26:55;11.52;;;7.68;;
44139;SDS011;29803;51.048;4.686;2023-06-05T09:29:28;14.18;;;7.05;;
44139;SDS011;29803;51.048;4.686;2023-06-05T09:32:01;10.50;;;6.93;;
44139;SDS011;29803;51.048;4.686;2023-06-05T09:34:34;12.25;;;7.28;;
44139;SDS011;29803;51.048;4.686;2023-06-05T09:37:09;10.45;;;6.40;;
44139;SDS011;29803;51.048;4.686;2023-06-05T09:39:41;13.70;;;7.32;;
44139;SDS011;29803;51.048;4.686;2023-06-05T09:42:13;11.82;;;7.35;;
44139;SDS011;29803;51.048;4.686;2023-06-05T09:44:46;12.05;;;6.57;;
44139;SDS011;29803;51.048;4.686;2023-06-05T09:47:29;15.32;;;7.50;;
44139;SDS011;29803;51.048;4.686;2023-06-05T09:49:59;10.68;;;6.72;;
44139;SDS011;29803;51.048;4.686;2023-06-05T09:52:30;11.88;;;7.22;;
44139;SDS011;29803;51.048;4.686;2023-06-05T09:55:04;12.13;;;6.60;;
44139;SDS011;29803;51.048;4.686;2023-06-05T09:57:36;14.43;;;7.18;;
44139;SDS011;29803;51.048;4.686;2023-06-05T10:00:08;11.07;;;6.28;;
44139;SDS011;29803;51.048;4.686;2023-06-05T10:02:43;9.75;;;5.50;;
44139;SDS011;29803;51.048;4.686;2023-06-05T10:05:14;14.10;;;6.85;;
44139;SDS011;29803;51.048;4.686;2023-06-05T10:07:45;13.23;;;6.68;;
44139;SDS011;29803;51.048;4.686;2023-06-05T10:10:18;10.05;;;6.63;;
44139;SDS011;29803;51.048;4.686;2023-06-05T10:12:48;12.98;;;6.43;;
44139;SDS011;29803;51.048;4.686;2023-06-05T10:15:19;12.82;;;6.78;;
44139;SDS011;29803;51.048;4.686;2023-06-05T10:17:50;10.40;;;6.10;;
44139;SDS011;29803;51.048;4.686;2023-06-05T10:20:21;10.10;;;5.93;;
44139;SDS011;29803;51.048;4.686;2023-06-05T10:22:51;12.20;;;6.97;;
44139;SDS011;29803;51.048;4.686;2023-06-05T10:25:23;11.93;;;7.05;;
44139;SDS011;29803;51.048;4.686;2023-06-05T10:27:56;11.32;;;6.40;;
44139;SDS011;29803;51.048;4.686;2023-06-05T10:39:51;11.07;;;6.43;;
44139;SDS011;29803;51.048;4.686;2023-06-05T10:42:24;13.55;;;6.18;;
44139;SDS011;29803;51.048;4.686;2023-06-05T10:44:56;12.50;;;6.38;;
44139;SDS011;29803;51.048;4.686;2023-06-05T10:52:49;15.18;;;6.10;;
44139;SDS011;29803;51.048;4.686;2023-06-05T10:55:21;9.65;;;6.22;;
44139;SDS011;29803;51.048;4.686;2023-06-05T11:00:37;14.88;;;6.60;;
44139;SDS011;29803;51.048;4.686;2023-06-05T11:03:08;12.27;;;6.05;;
44139;SDS011;29803;51.048;4.686;2023-06-05T11:05:38;8.35;;;6.05;;
44139;SDS011;29803;51.048;4.686;2023-06-05T11:12:01;13.40;;;5.68;;
44139;SDS011;29803;51.048;4.686;2023-06-05T11:17:27;14.32;;;5.97;;
44139;SDS011;29803;51.048;4.686;2023-06-05T11:19:58;13.10;;;5.72;;
44139;SDS011;29803;51.048;4.686;2023-06-05T11:22:30;9.48;;;5.88;;
44139;SDS011;29803;51.048;4.686;2023-06-05T11:27:44;11.15;;;5.82;;
44139;SDS011;29803;51.048;4.686;2023-06-05T11:30:17;10.75;;;5.38;;
44139;SDS011;29803;51.048;4.686;2023-06-05T11:32:49;9.13;;;5.45;;
44139;SDS011;29803;51.048;4.686;2023-06-05T11:35:23;15.00;;;5.55;;
44139;SDS011;29803;51.048;4.686;2023-06-05T11:38:08;12.68;;;5.20;;
44139;SDS011;29803;51.048;4.686;2023-06-05T11:40:40;9.15;;;5.47;;
44139;SDS011;29803;51.048;4.686;2023-06-05T11:43:12;9.20;;;5.20;;
44139;SDS011;29803;51.048;4.686;2023-06-05T11:48:30;9.18;;;5.20;;
44139;SDS011;29803;51.048;4.686;2023-06-05T11:51:02;12.70;;;4.97;;
44139;SDS011;29803;51.048;4.686;2023-06-05T11:53:34;9.10;;;4.72;;
44139;SDS011;29803;51.048;4.686;2023-06-05T11:58:57;10.85;;;5.10;;
44139;SDS011;29803;51.048;4.686;2023-06-05T12:01:28;14.98;;;4.82;;
44139;SDS011;29803;51.048;4.686;2023-06-05T12:04:02;10.10;;;4.75;;
44139;SDS011;29803;51.048;4.686;2023-06-05T12:09:23;11.55;;;4.85;;
44139;SDS011;29803;51.048;4.686;2023-06-05T12:12:03;8.05;;;3.72;;
44139;SDS011;29803;51.048;4.686;2023-06-05T12:14:36;6.47;;;3.75;;
44139;SDS011;29803;51.048;4.686;2023-06-05T12:17:08;9.50;;;4.95;;
44139;SDS011;29803;51.048;4.686;2023-06-05T12:19:40;6.60;;;3.60;;
44139;SDS011;29803;51.048;4.686;2023-06-05T12:22:11;13.50;;;3.70;;
44139;SDS011;29803;51.048;4.686;2023-06-05T12:24:41;8.77;;;3.67;;
44139;SDS011;29803;51.048;4.686;2023-06-05T12:27:12;8.27;;;4.20;;
44139;SDS011;29803;51.048;4.686;2023-06-05T12:29:51;8.27;;;3.95;;
44139;SDS011;29803;51.048;4.686;2023-06-05T12:32:25;6.20;;;3.72;;
44139;SDS011;29803;51.048;4.686;2023-06-05T12:34:55;11.18;;;3.60;;
44139;SDS011;29803;51.048;4.686;2023-06-05T12:37:27;9.93;;;4.05;;
44139;SDS011;29803;51.048;4.686;2023-06-05T12:40:00;5.65;;;3.50;;
44139;SDS011;29803;51.048;4.686;2023-06-05T12:42:33;4.72;;;3.00;;
44139;SDS011;29803;51.048;4.686;2023-06-05T12:45:06;7.82;;;3.78;;
44139;SDS011;29803;51.048;4.686;2023-06-05T12:47:37;5.65;;;3.47;;
44139;SDS011;29803;51.048;4.686;2023-06-05T12:50:08;5.35;;;2.85;;
44139;SDS011;29803;51.048;4.686;2023-06-05T12:52:42;9.02;;;3.30;;
44139;SDS011;29803;51.048;4.686;2023-06-05T12:55:12;5.25;;;2.70;;
44139;SDS011;29803;51.048;4.686;2023-06-05T12:57:43;9.48;;;3.45;;
44139;SDS011;29803;51.048;4.686;2023-06-05T13:00:15;5.03;;;3.30;;
44139;SDS011;29803;51.048;4.686;2023-06-05T13:02:48;6.63;;;3.60;;
44139;SDS011;29803;51.048;4.686;2023-06-05T13:05:18;5.85;;;3.55;;
44139;SDS011;29803;51.048;4.686;2023-06-05T13:07:49;8.60;;;3.40;;
44139;SDS011;29803;51.048;4.686;2023-06-05T13:10:22;10.27;;;3.80;;
44139;SDS011;29803;51.048;4.686;2023-06-05T13:12:56;7.32;;;3.40;;
44139;SDS011;29803;51.048;4.686;2023-06-05T13:15:26;11.43;;;3.65;;
44139;SDS011;29803;51.048;4.686;2023-06-05T13:17:57;8.52;;;2.78;;
44139;SDS011;29803;51.048;4.686;2023-06-05T13:20:27;7.65;;;3.80;;
44139;SDS011;29803;51.048;4.686;2023-06-05T13:22:58;7.93;;;3.88;;
44139;SDS011;29803;51.048;4.686;2023-06-05T13:25:28;8.80;;;3.80;;
44139;SDS011;29803;51.048;4.686;2023-06-05T13:27:59;5.95;;;3.28;;
44139;SDS011;29803;51.048;4.686;2023-06-05T13:30:29;7.07;;;3.47;;
44139;SDS011;29803;51.048;4.686;2023-06-05T13:33:00;7.15;;;3.22;;
44139;SDS011;29803;51.048;4.686;2023-06-05T13:35:30;10.32;;;3.33;;
44139;SDS011;29803;51.048;4.686;2023-06-05T13:38:01;6.72;;;3.30;;
44139;SDS011;29803;51.048;4.686;2023-06-05T13:40:32;6.25;;;2.85;;
44139;SDS011;29803;51.048;4.686;2023-06-05T13:43:02;5.57;;;2.78;;
44139;SDS011;29803;51.048;4.686;2023-06-05T13:45:33;8.20;;;2.83;;
44139;SDS011;29803;51.048;4.686;2023-06-05T13:48:04;10.48;;;3.35;;
44139;SDS011;29803;51.048;4.686;2023-06-05T13:50:38;6.53;;;3.55;;
44139;SDS011;29803;51.048;4.686;2023-06-05T13:53:08;6.97;;;3.08;;
44139;SDS011;29803;51.048;4.686;2023-06-05T13:55:39;6.13;;;3.47;;
44139;SDS011;29803;51.048;4.686;2023-06-05T13:58:09;6.75;;;3.45;;
44139;SDS011;29803;51.048;4.686;2023-06-05T14:00:42;8.00;;;3.10;;
44139;SDS011;29803;51.048;4.686;2023-06-05T14:03:13;6.93;;;3.35;;
44139;SDS011;29803;51.048;4.686;2023-06-05T14:05:44;10.50;;;3.20;;
44139;SDS011;29803;51.048;4.686;2023-06-05T14:08:14;6.25;;;3.03;;
44139;SDS011;29803;51.048;4.686;2023-06-05T14:10:45;9.27;;;3.20;;
44139;SDS011;29803;51.048;4.686;2023-06-05T14:13:15;6.43;;;3.15;;
44139;SDS011;29803;51.048;4.686;2023-06-05T14:15:46;5.38;;;2.88;;
44139;SDS011;29803;51.048;4.686;2023-06-05T14:18:17;6.68;;;3.10;;
44139;SDS011;29803;51.048;4.686;2023-06-05T14:20:47;5.53;;;2.90;;
44139;SDS011;29803;51.048;4.686;2023-06-05T14:23:18;7.65;;;3.53;;
44139;SDS011;29803;51.048;4.686;2023-06-05T14:25:50;8.95;;;3.63;;
44139;SDS011;29803;51.048;4.686;2023-06-05T14:28:21;7.03;;;3.20;;
44139;SDS011;29803;51.048;4.686;2023-06-05T14:30:52;5.82;;;3.22;;
44139;SDS011;29803;51.048;4.686;2023-06-05T14:33:24;4.40;;;3.13;;
44139;SDS011;29803;51.048;4.686;2023-06-05T14:35:55;8.45;;;3.03;;
44139;SDS011;29803;51.048;4.686;2023-06-05T14:38:26;10.10;;;3.47;;
44139;SDS011;29803;51.048;4.686;2023-06-05T14:40:57;7.15;;;3.15;;
44139;SDS011;29803;51.048;4.686;2023-06-05T14:43:27;8.90;;;2.75;;
44139;SDS011;29803;51.048;4.686;2023-06-05T14:45:58;7.60;;;3.53;;
44139;SDS011;29803;51.048;4.686;2023-06-05T14:48:30;8.82;;;2.95;;
44139;SDS011;29803;51.048;4.686;2023-06-05T14:51:01;5.38;;;3.03;;
44139;SDS011;29803;51.048;4.686;2023-06-05T14:53:31;14.07;;;3.40;;
44139;SDS011;29803;51.048;4.686;2023-06-05T14:56:02;6.45;;;3.03;;
44139;SDS011;29803;51.048;4.686;2023-06-05T14:58:33;8.73;;;3.60;;
44139;SDS011;29803;51.048;4.686;2023-06-05T15:01:04;9.57;;;3.20;;
44139;SDS011;29803;51.048;4.686;2023-06-05T15:03:34;11.75;;;3.30;;
44139;SDS011;29803;51.048;4.686;2023-06-05T15:06:05;6.85;;;3.63;;
44139;SDS011;29803;51.048;4.686;2023-06-05T15:08:36;8.38;;;3.58;;
44139;SDS011;29803;51.048;4.686;2023-06-05T15:11:06;7.78;;;4.18;;
44139;SDS011;29803;51.048;4.686;2023-06-05T15:13:37;6.95;;;3.42;;
44139;SDS011;29803;51.048;4.686;2023-06-05T15:16:07;5.25;;;3.50;;
44139;SDS011;29803;51.048;4.686;2023-06-05T15:18:38;5.35;;;3.38;;
44139;SDS011;29803;51.048;4.686;2023-06-05T15:21:08;11.60;;;3.83;;
44139;SDS011;29803;51.048;4.686;2023-06-05T15:23:39;11.75;;;3.75;;
44139;SDS011;29803;51.048;4.686;2023-06-05T15:26:09;9.75;;;4.03;;
44139;SDS011;29803;51.048;4.686;2023-06-05T15:28:40;5.18;;;3.67;;
44139;SDS011;29803;51.048;4.686;2023-06-05T15:31:11;8.85;;;3.58;;
44139;SDS011;29803;51.048;4.686;2023-06-05T15:33:41;7.80;;;3.95;;
44139;SDS011;29803;51.048;4.686;2023-06-05T15:36:12;8.15;;;3.40;;
44139;SDS011;29803;51.048;4.686;2023-06-05T15:38:42;9.73;;;2.90;;
44139;SDS011;29803;51.048;4.686;2023-06-05T15:41:13;6.38;;;3.60;;
44139;SDS011;29803;51.048;4.686;2023-06-05T15:43:43;8.55;;;3.67;;
44139;SDS011;29803;51.048;4.686;2023-06-05T15:46:14;7.32;;;3.80;;
44139;SDS011;29803;51.048;4.686;2023-06-05T15:48:45;9.82;;;3.88;;
44139;SDS011;29803;51.048;4.686;2023-06-05T15:51:16;10.13;;;3.20;;
44139;SDS011;29803;51.048;4.686;2023-06-05T15:53:46;10.20;;;3.38;;
44139;SDS011;29803;51.048;4.686;2023-06-05T15:56:16;9.05;;;3.65;;